Time;durP1;ratioP1;P1;durP2;ratioP2;P2;SDS_P1;SDS_P2;PMS_P1;PMS_P2;Temp;Humidity;BMP_temperature;BMP_pressure;BME280_temperature;BME280_humidity;BME280_pressure;Samples;Min_cycle;Max_cycle;Signal;HPM_P1;HPM_P2
2023/05/07 00:00:22;;;;;;;2.67;1.90;;;13.50;99.90;;;;;;5025129;28;20032;-64
2023/05/07 00:02:48;;;;;;;3.58;1.95;;;13.50;99.90;;;;;;5001834;28;20038;-63
2023/05/07 00:05:14;;;;;;;4.13;1.85;;;13.50;99.90;;;;;;5025244;28;20943;-64
2023/05/07 00:07:40;;;;;;;4.57;2.40;;;13.50;99.90;;;;;;5026405;28;20025;-64
2023/05/07 00:10:06;;;;;;;3.40;2.05;;;13.40;99.90;;;;;;5025541;28;20032;-64
2023/05/07 00:12:33;;;;;;;6.20;2.20;;;13.40;99.90;;;;;;5026532;28;20021;-64
2023/05/07 00:15:00;;;;;;;5.80;2.10;;;13.40;99.90;;;;;;5019436;28;20048;-64
2023/05/07 00:17:25;;;;;;;4.30;2.08;;;13.40;99.90;;;;;;5026525;28;20033;-65
2023/05/07 00:19:51;;;;;;;5.10;2.17;;;13.50;99.90;;;;;;5022354;28;20040;-64
2023/05/07 00:22:17;;;;;;;4.10;2.70;;;13.50;99.90;;;;;;5021967;28;20029;-64
2023/05/07 00:24:42;;;;;;;6.25;2.22;;;13.40;99.90;;;;;;5021707;28;20029;-64
2023/05/07 00:27:08;;;;;;;3.38;2.08;;;13.40;99.90;;;;;;5006144;28;20074;-64
2023/05/07 00:29:34;;;;;;;4.38;2.15;;;13.40;99.90;;;;;;5022528;28;20172;-64
2023/05/07 00:31:59;;;;;;;2.92;1.90;;;13.30;99.90;;;;;;5019867;28;20033;-64
2023/05/07 00:34:25;;;;;;;5.47;2.00;;;13.40;99.90;;;;;;5031034;28;20025;-64
2023/05/07 00:36:51;;;;;;;3.65;1.95;;;13.40;99.90;;;;;;5028923;28;20368;-64
2023/05/07 00:39:16;;;;;;;6.75;1.77;;;13.30;99.90;;;;;;5031387;28;20029;-64
2023/05/07 00:41:42;;;;;;;3.03;1.60;;;13.30;99.90;;;;;;5031327;28;20472;-65
2023/05/07 00:44:08;;;;;;;4.65;1.52;;;13.40;99.90;;;;;;5028707;28;20108;-64
2023/05/07 00:46:34;;;;;;;3.25;1.88;;;13.30;99.90;;;;;;5006432;28;20095;-64
2023/05/07 00:49:00;;;;;;;4.95;1.67;;;13.30;99.90;;;;;;5018902;28;20442;-64
2023/05/07 00:51:27;;;;;;;2.30;1.60;;;13.30;99.90;;;;;;5020292;28;20644;-64
2023/05/07 00:53:53;;;;;;;5.28;1.95;;;13.30;99.90;;;;;;5023953;28;20099;-64
2023/05/07 00:56:21;;;;;;;3.08;2.08;;;13.40;99.90;;;;;;5022279;28;20032;-64
2023/05/07 00:58:47;;;;;;;5.75;1.65;;;13.30;99.90;;;;;;5023939;28;20083;-65
2023/05/07 01:01:12;;;;;;;2.70;1.95;;;13.30;99.90;;;;;;5019568;28;20017;-65
2023/05/07 01:03:38;;;;;;;4.82;1.73;;;13.30;99.90;;;;;;5023407;28;20033;-64
2023/05/07 01:06:06;;;;;;;3.50;1.80;;;13.30;99.90;;;;;;5025965;28;20494;-64
2023/05/07 01:08:34;;;;;;;3.58;1.98;;;13.30;99.90;;;;;;5014990;28;20446;-64
2023/05/07 01:11:00;;;;;;;2.90;1.98;;;13.40;99.90;;;;;;5005433;28;20017;-65
2023/05/07 01:13:27;;;;;;;3.75;1.58;;;13.40;99.90;;;;;;5028169;28;20021;-65
2023/05/07 01:15:53;;;;;;;8.05;1.83;;;13.40;99.90;;;;;;5022996;28;20041;-64
2023/05/07 01:18:19;;;;;;;2.53;1.83;;;13.40;99.90;;;;;;5022337;28;20025;-64
2023/05/07 01:20:45;;;;;;;2.97;1.42;;;13.50;99.90;;;;;;5025402;28;20641;-64
2023/05/07 01:23:12;;;;;;;4.85;1.75;;;13.50;99.90;;;;;;5021927;28;20435;-65
2023/05/07 01:25:37;;;;;;;1.23;1.13;;;13.50;99.90;;;;;;5019866;28;20029;-64
2023/05/07 01:28:03;;;;;;;4.03;1.63;;;13.50;99.90;;;;;;5023077;28;20032;-65
2023/05/07 01:30:30;;;;;;;7.22;2.45;;;13.50;99.90;;;;;;5023327;28;20037;-65
2023/05/07 01:33:10;;;;;;;5.47;2.30;;;13.40;99.90;;;;;;4999473;28;20040;-65
2023/05/07 01:35:41;;;;;;;2.13;1.65;;;13.40;99.90;;;;;;5018590;28;20061;-64
2023/05/07 01:38:08;;;;;;;2.92;2.33;;;13.40;99.90;;;;;;5017652;28;20474;-65
2023/05/07 01:40:37;;;;;;;5.35;1.83;;;13.30;99.90;;;;;;5011671;28;20108;-65
2023/05/07 01:43:03;;;;;;;4.22;1.58;;;13.30;99.90;;;;;;5012380;28;20033;-65
2023/05/07 01:45:30;;;;;;;2.50;1.55;;;13.20;99.90;;;;;;5023081;28;20018;-65
2023/05/07 01:47:58;;;;;;;3.70;1.70;;;13.20;99.90;;;;;;5021334;28;20040;-64
2023/05/07 01:50:24;;;;;;;2.97;1.80;;;13.20;99.90;;;;;;5021214;28;20443;-65
2023/05/07 01:52:50;;;;;;;2.80;1.60;;;13.20;99.90;;;;;;5017506;28;20022;-64
2023/05/07 01:55:16;;;;;;;4.18;1.80;;;13.20;99.90;;;;;;5023353;28;20038;-64
2023/05/07 01:57:42;;;;;;;3.33;2.15;;;13.20;99.90;;;;;;5020623;28;20026;-65
2023/05/07 02:00:08;;;;;;;5.68;2.40;;;13.20;99.90;;;;;;5018256;28;20034;-64
2023/05/07 02:02:34;;;;;;;6.25;2.40;;;13.30;99.90;;;;;;4995638;28;20041;-65
2023/05/07 02:05:03;;;;;;;10.20;2.83;;;13.30;99.90;;;;;;5022571;28;20029;-65
2023/05/07 02:07:28;;;;;;;4.07;2.10;;;13.40;99.90;;;;;;5023533;28;20033;-64
2023/05/07 02:09:55;;;;;;;6.25;2.20;;;13.40;99.90;;;;;;5026736;28;20510;-64
2023/05/07 02:12:21;;;;;;;6.15;2.63;;;13.30;99.90;;;;;;5023962;28;20563;-65
2023/05/07 02:14:47;;;;;;;3.38;2.15;;;13.40;99.90;;;;;;5019802;28;20037;-64
2023/05/07 02:17:12;;;;;;;8.43;2.40;;;13.40;99.90;;;;;;5026529;28;20491;-64
2023/05/07 02:19:38;;;;;;;3.05;2.10;;;13.30;99.90;;;;;;5018708;28;20052;-63
2023/05/07 02:22:03;;;;;;;5.43;2.10;;;13.40;99.90;;;;;;5027215;28;20104;-65
2023/05/07 02:24:30;;;;;;;4.07;2.33;;;13.40;99.90;;;;;;5023764;28;20025;-64
2023/05/07 02:26:55;;;;;;;8.10;2.35;;;13.40;99.90;;;;;;5026744;28;20506;-65
2023/05/07 02:29:21;;;;;;;6.00;2.10;;;13.30;99.90;;;;;;5026333;28;20057;-65
2023/05/07 02:31:50;;;;;;;8.30;2.20;;;13.30;99.90;;;;;;5023496;28;20506;-64
2023/05/07 02:34:16;;;;;;;3.85;2.15;;;13.30;99.90;;;;;;5022508;28;20052;-65
2023/05/07 02:36:42;;;;;;;5.10;2.15;;;13.30;99.90;;;;;;5019759;28;20063;-64
2023/05/07 02:39:07;;;;;;;9.23;2.20;;;13.30;99.90;;;;;;5016674;28;20034;-64
2023/05/07 02:41:33;;;;;;;2.55;1.67;;;13.30;99.90;;;;;;5022706;28;20029;-65
2023/05/07 02:43:59;;;;;;;3.60;2.38;;;13.40;99.90;;;;;;5019369;28;20018;-64
2023/05/07 02:46:24;;;;;;;4.10;1.92;;;13.40;99.90;;;;;;5009734;28;20067;-64
2023/05/07 02:48:50;;;;;;;3.70;1.75;;;13.50;99.90;;;;;;5023706;28;20083;-64
2023/05/07 02:51:20;;;;;;;2.33;1.63;;;13.50;99.90;;;;;;5019986;28;20055;-61
2023/05/07 02:53:45;;;;;;;3.35;1.83;;;13.50;99.90;;;;;;5026879;28;20501;-65
2023/05/07 02:56:11;;;;;;;3.75;1.73;;;13.50;99.90;;;;;;5027730;28;20109;-64
2023/05/07 02:58:39;;;;;;;4.45;2.08;;;13.50;99.90;;;;;;5032498;28;20025;-65
2023/05/07 03:01:08;;;;;;;4.55;2.00;;;13.50;99.90;;;;;;5029190;28;20087;-65
2023/05/07 03:03:34;;;;;;;5.40;1.83;;;13.40;99.90;;;;;;5025617;28;20030;-64
2023/05/07 03:06:00;;;;;;;3.25;1.75;;;13.40;99.90;;;;;;5031826;28;20067;-64
2023/05/07 03:08:25;;;;;;;2.60;1.65;;;13.40;99.90;;;;;;5029769;28;20392;-65
2023/05/07 03:10:51;;;;;;;4.13;1.55;;;13.40;99.90;;;;;;5018889;28;20041;-65
2023/05/07 03:13:17;;;;;;;2.13;1.60;;;13.40;99.90;;;;;;5020799;28;20403;-64
2023/05/07 03:15:43;;;;;;;4.43;1.88;;;13.40;99.90;;;;;;5024258;28;20501;-64
2023/05/07 03:18:08;;;;;;;3.65;1.60;;;13.30;99.90;;;;;;5023219;28;20041;-64
2023/05/07 03:20:36;;;;;;;1.75;1.38;;;13.40;99.90;;;;;;5024252;28;20033;-64
2023/05/07 03:23:01;;;;;;;3.00;1.63;;;13.40;99.90;;;;;;5021195;28;20025;-65
2023/05/07 03:25:27;;;;;;;4.03;1.67;;;13.40;99.90;;;;;;5023982;28;20391;-64
2023/05/07 03:27:53;;;;;;;3.58;1.33;;;13.40;99.90;;;;;;5024972;28;20391;-64
2023/05/07 03:30:18;;;;;;;2.97;1.55;;;13.40;99.90;;;;;;5023069;28;20113;-64
2023/05/07 03:32:44;;;;;;;2.92;1.60;;;13.30;99.90;;;;;;5027490;28;20045;-65
2023/05/07 03:35:09;;;;;;;6.95;2.47;;;13.40;99.90;;;;;;5015604;28;20064;-65
2023/05/07 03:37:35;;;;;;;3.28;1.40;;;13.40;99.90;;;;;;5021960;28;20024;-65
2023/05/07 03:40:02;;;;;;;2.92;1.80;;;13.30;99.90;;;;;;5013214;28;20156;-64
2023/05/07 03:42:29;;;;;;;8.90;2.22;;;13.30;99.90;;;;;;5015735;28;20022;-64
2023/05/07 03:44:54;;;;;;;2.92;1.75;;;13.30;99.90;;;;;;5014356;28;20026;-65
2023/05/07 03:47:20;;;;;;;3.05;2.25;;;13.40;99.90;;;;;;5006462;28;20790;-65
2023/05/07 03:49:45;;;;;;;6.22;1.60;;;13.30;99.90;;;;;;5019063;28;20399;-64
2023/05/07 03:52:11;;;;;;;6.07;1.80;;;13.30;99.90;;;;;;5023789;28;20028;-64
2023/05/07 03:54:36;;;;;;;3.13;1.40;;;13.30;99.90;;;;;;5024729;28;20068;-64
2023/05/07 03:57:02;;;;;;;2.83;1.40;;;13.20;99.90;;;;;;5029253;28;20029;-64
2023/05/07 03:59:28;;;;;;;3.22;1.70;;;13.20;99.90;;;;;;5029061;28;20561;-64
2023/05/07 04:01:53;;;;;;;2.75;1.45;;;13.20;99.90;;;;;;5027901;28;20026;-65
2023/05/07 04:04:20;;;;;;;5.25;1.73;;;13.20;99.90;;;;;;5024595;28;20021;-64
2023/05/07 04:06:45;;;;;;;4.07;2.15;;;13.10;99.90;;;;;;5020045;28;20483;-63
2023/05/07 04:09:11;;;;;;;2.65;1.73;;;13.10;99.90;;;;;;5020651;28;20037;-64
2023/05/07 04:11:36;;;;;;;3.85;1.60;;;13.10;99.90;;;;;;5021163;28;20060;-64
2023/05/07 04:14:02;;;;;;;7.65;1.60;;;13.10;99.90;;;;;;5024003;28;20033;-63
2023/05/07 04:16:27;;;;;;;2.15;1.42;;;13.10;99.90;;;;;;5008694;28;20060;-65
2023/05/07 04:18:53;;;;;;;4.00;1.77;;;13.20;99.90;;;;;;5023540;28;20099;-65
2023/05/07 04:21:20;;;;;;;3.95;1.75;;;13.30;99.90;;;;;;5021188;28;20108;-64
2023/05/07 04:23:47;;;;;;;3.67;1.98;;;13.30;99.90;;;;;;5024749;28;20055;-64
2023/05/07 04:26:13;;;;;;;2.10;1.58;;;13.30;99.90;;;;;;5023516;28;20036;-65
2023/05/07 04:28:39;;;;;;;3.97;1.67;;;13.40;99.90;;;;;;5026606;28;20022;-65
2023/05/07 04:31:05;;;;;;;3.22;1.50;;;13.50;99.90;;;;;;5023318;28;20048;-62
2023/05/07 04:33:31;;;;;;;3.00;1.40;;;13.50;99.90;;;;;;5018727;28;20069;-65
2023/05/07 04:35:56;;;;;;;7.60;1.88;;;13.50;99.90;;;;;;5022982;28;20025;-65
2023/05/07 04:38:23;;;;;;;5.40;1.60;;;13.60;99.90;;;;;;5019851;28;20434;-64
2023/05/07 04:40:49;;;;;;;2.97;1.70;;;13.70;99.90;;;;;;5023326;28;20036;-65
2023/05/07 04:43:15;;;;;;;4.00;2.22;;;13.80;99.90;;;;;;5017744;28;20018;-65
2023/05/07 04:45:41;;;;;;;2.05;1.40;;;13.90;99.90;;;;;;5005352;28;20049;-65
2023/05/07 04:48:08;;;;;;;5.47;1.70;;;14.00;99.90;;;;;;5006192;28;20082;-65
2023/05/07 04:50:34;;;;;;;3.67;1.85;;;14.00;99.90;;;;;;5020632;28;20033;-65
2023/05/07 04:53:00;;;;;;;3.33;1.42;;;14.10;99.90;;;;;;5012832;28;20488;-65
2023/05/07 04:55:25;;;;;;;5.00;1.95;;;14.30;99.90;;;;;;5017680;28;20157;-65
2023/05/07 04:57:52;;;;;;;3.60;1.92;;;14.40;99.90;;;;;;5017294;28;20490;-62
2023/05/07 05:00:19;;;;;;;4.05;1.23;;;14.40;99.90;;;;;;5018233;28;20120;-65
2023/05/07 05:05:13;;;;;;;3.78;1.95;;;14.60;99.90;;;;;;5062431;23;20443;-65
2023/05/07 05:07:38;;;;;;;6.25;1.42;;;14.60;99.90;;;;;;5042814;28;20021;-65
2023/05/07 05:10:05;;;;;;;1.70;1.25;;;14.80;99.90;;;;;;5030714;28;20424;-64
2023/05/07 05:12:31;;;;;;;2.22;1.60;;;14.80;99.90;;;;;;5031118;28;20032;-65
2023/05/07 05:14:56;;;;;;;3.92;1.90;;;15.00;99.90;;;;;;5027204;28;20025;-66
2023/05/07 05:17:22;;;;;;;1.98;1.77;;;15.10;99.90;;;;;;5024561;28;20029;-66
2023/05/07 05:19:48;;;;;;;2.47;1.45;;;15.20;99.90;;;;;;5013855;28;20038;-65
2023/05/07 05:22:13;;;;;;;5.45;1.85;;;15.20;99.90;;;;;;5014801;28;20057;-65
2023/05/07 05:24:39;;;;;;;3.35;1.52;;;15.20;99.90;;;;;;5017313;28;20037;-66
2023/05/07 05:27:05;;;;;;;4.22;1.70;;;15.20;99.90;;;;;;5012425;28;20032;-64
2023/05/07 05:29:31;;;;;;;2.60;1.98;;;15.30;99.90;;;;;;5016033;28;20442;-65
2023/05/07 05:31:57;;;;;;;2.25;1.55;;;15.40;99.90;;;;;;5014268;28;20124;-64
2023/05/07 05:34:22;;;;;;;4.55;1.83;;;15.40;99.90;;;;;;5013155;28;20112;-65
2023/05/07 05:36:48;;;;;;;3.67;1.52;;;15.60;99.90;;;;;;5014894;28;20041;-64
2023/05/07 05:39:14;;;;;;;2.70;1.92;;;15.70;99.90;;;;;;5023395;28;20045;-65
2023/05/07 05:41:39;;;;;;;2.63;1.67;;;15.70;99.90;;;;;;5026809;28;20684;-65
2023/05/07 05:44:05;;;;;;;2.15;1.60;;;15.70;99.90;;;;;;5022840;28;20422;-65
2023/05/07 05:46:31;;;;;;;2.78;1.42;;;15.90;99.90;;;;;;5019141;28;20046;-65
2023/05/07 05:48:56;;;;;;;2.85;2.10;;;15.90;99.90;;;;;;5005265;28;20104;-64
2023/05/07 05:51:23;;;;;;;3.38;1.65;;;16.00;99.90;;;;;;5019971;28;20034;-65
2023/05/07 05:53:48;;;;;;;2.17;1.48;;;16.20;99.90;;;;;;5021764;28;20034;-65
2023/05/07 05:56:15;;;;;;;2.60;1.70;;;16.30;99.90;;;;;;5020402;28;20026;-65
2023/05/07 05:58:41;;;;;;;2.15;1.77;;;16.40;99.90;;;;;;5019010;28;20057;-65
2023/05/07 06:01:07;;;;;;;3.33;1.88;;;16.40;99.90;;;;;;5024468;28;20462;-65
2023/05/07 06:03:32;;;;;;;4.40;1.80;;;16.40;99.90;;;;;;5019871;28;20397;-65
2023/05/07 06:05:59;;;;;;;2.45;1.42;;;16.40;99.90;;;;;;5023385;28;20487;-65
2023/05/07 06:08:25;;;;;;;2.72;1.88;;;16.30;99.90;;;;;;5021182;28;20047;-65
2023/05/07 06:10:51;;;;;;;4.10;1.48;;;16.30;99.90;;;;;;5014958;28;20484;-65
2023/05/07 06:13:17;;;;;;;2.63;1.55;;;16.40;99.90;;;;;;5024090;28;20056;-66
2023/05/07 06:15:42;;;;;;;3.63;1.30;;;16.30;99.90;;;;;;5015878;28;20029;-65
2023/05/07 06:18:08;;;;;;;3.53;1.83;;;16.40;99.90;;;;;;5020697;28;20116;-65
2023/05/07 06:20:34;;;;;;;5.72;1.45;;;16.40;99.90;;;;;;5017289;28;20033;-64
2023/05/07 06:22:59;;;;;;;2.53;1.42;;;16.40;99.90;;;;;;5015505;28;20083;-65
2023/05/07 06:25:25;;;;;;;2.28;1.67;;;16.40;99.90;;;;;;5020965;28;20029;-63
2023/05/07 06:27:51;;;;;;;1.88;1.55;;;16.40;99.90;;;;;;5022238;28;20571;-66
2023/05/07 06:30:16;;;;;;;1.83;1.60;;;16.40;99.90;;;;;;5021581;28;20108;-64
2023/05/07 06:32:42;;;;;;;3.38;1.60;;;16.60;99.90;;;;;;5020841;28;20835;-66
2023/05/07 06:35:08;;;;;;;2.50;2.00;;;16.80;99.90;;;;;;5021968;28;20421;-65
2023/05/07 06:37:33;;;;;;;4.32;2.20;;;16.90;99.90;;;;;;5021458;28;20060;-66
2023/05/07 06:39:59;;;;;;;2.40;1.55;;;16.90;99.90;;;;;;5022839;28;20479;-65
2023/05/07 06:42:25;;;;;;;3.80;2.05;;;17.00;99.90;;;;;;5000624;28;20112;-65
2023/05/07 06:44:50;;;;;;;3.80;1.90;;;17.10;99.90;;;;;;5021598;28;20778;-64
2023/05/07 06:47:16;;;;;;;2.22;1.80;;;17.20;99.90;;;;;;4988129;28;20384;-66
2023/05/07 06:49:41;;;;;;;3.40;1.70;;;17.30;99.90;;;;;;5017466;28;20049;-65
2023/05/07 06:52:07;;;;;;;2.25;1.63;;;17.30;99.90;;;;;;5012487;28;20040;-65
2023/05/07 06:54:33;;;;;;;3.17;1.95;;;17.50;99.90;;;;;;5015910;28;20566;-65
2023/05/07 06:56:58;;;;;;;1.52;1.40;;;17.50;99.90;;;;;;5026272;28;20030;-65
2023/05/07 06:59:24;;;;;;;2.75;1.40;;;17.60;99.90;;;;;;5019564;28;20065;-64
2023/05/07 07:01:50;;;;;;;5.25;2.05;;;17.80;99.90;;;;;;5027627;28;20131;-65
2023/05/07 07:04:15;;;;;;;2.08;1.35;;;17.90;99.90;;;;;;5030452;28;20030;-65
2023/05/07 07:06:41;;;;;;;2.70;1.70;;;18.40;99.90;;;;;;5032022;28;20048;-66
2023/05/07 07:09:06;;;;;;;3.47;1.45;;;18.80;99.90;;;;;;5031865;28;20111;-65
2023/05/07 07:11:32;;;;;;;4.35;1.40;;;19.40;99.90;;;;;;5033169;28;20041;-64
2023/05/07 07:13:58;;;;;;;1.60;1.10;;;19.90;99.90;;;;;;5030498;28;20518;-65
2023/05/07 07:16:24;;;;;;;2.75;1.20;;;20.40;99.90;;;;;;5031471;28;20120;-66
2023/05/07 07:18:50;;;;;;;1.58;1.00;;;20.60;99.90;;;;;;5021641;28;20124;-65
2023/05/07 07:21:16;;;;;;;5.18;1.40;;;20.70;99.90;;;;;;5021103;28;20029;-66
2023/05/07 07:23:41;;;;;;;1.73;1.10;;;20.80;99.90;;;;;;5026382;28;20026;-65
2023/05/07 07:26:07;;;;;;;3.60;1.15;;;20.70;99.90;;;;;;5027152;28;20059;-66
2023/05/07 07:28:33;;;;;;;1.58;0.80;;;20.80;99.90;;;;;;5024078;28;22423;-66
2023/05/07 07:30:58;;;;;;;1.88;1.17;;;20.90;99.90;;;;;;5022561;28;20030;-65
2023/05/07 07:33:24;;;;;;;1.88;1.25;;;20.70;99.90;;;;;;5024930;28;20083;-66
2023/05/07 07:35:49;;;;;;;6.05;1.23;;;21.30;99.90;;;;;;5016110;28;20491;-64
2023/05/07 07:38:15;;;;;;;1.65;1.05;;;21.20;99.90;;;;;;5007975;28;20030;-66
2023/05/07 07:40:41;;;;;;;1.48;0.98;;;21.60;99.90;;;;;;5027278;28;20028;-63
2023/05/07 07:43:06;;;;;;;3.42;0.82;;;21.80;99.90;;;;;;5028369;28;20544;-65
2023/05/07 07:45:32;;;;;;;2.47;1.08;;;21.80;99.90;;;;;;5020746;28;20041;-66
2023/05/07 07:47:57;;;;;;;2.13;1.10;;;22.40;99.90;;;;;;5003826;28;20121;-65
2023/05/07 07:50:23;;;;;;;1.63;0.88;;;22.30;99.90;;;;;;5016192;28;20475;-64
2023/05/07 07:52:48;;;;;;;2.33;1.08;;;22.30;99.90;;;;;;5029077;28;20380;-65
2023/05/07 07:55:17;;;;;;;1.00;0.80;;;22.00;99.90;;;;;;5027884;28;20101;-66
2023/05/07 07:57:43;;;;;;;2.25;1.42;;;21.90;99.90;;;;;;5009489;28;20139;-66
2023/05/07 08:00:09;;;;;;;5.00;1.42;;;21.90;99.90;;;;;;5018212;28;20080;-64
2023/05/07 08:02:35;;;;;;;1.75;1.10;;;22.70;99.90;;;;;;5024130;28;20025;-63
2023/05/07 08:05:00;;;;;;;4.20;1.50;;;23.60;99.90;;;;;;5023468;28;21405;-66
2023/05/07 08:07:26;;;;;;;2.95;1.10;;;24.40;97.50;;;;;;5031691;28;20026;-66
2023/05/07 08:09:52;;;;;;;3.35;0.90;;;24.50;97.00;;;;;;5030894;28;20518;-66
2023/05/07 08:12:18;;;;;;;3.38;1.20;;;25.70;95.60;;;;;;5027570;28;20112;-66
2023/05/07 08:14:43;;;;;;;1.20;1.10;;;26.40;92.20;;;;;;5020622;28;20030;-65
2023/05/07 08:17:10;;;;;;;2.85;1.15;;;27.00;92.70;;;;;;5018669;28;20026;-65
2023/05/07 08:19:35;;;;;;;3.97;0.80;;;27.20;92.00;;;;;;5018838;28;20057;-64
2023/05/07 08:22:02;;;;;;;1.40;0.80;;;28.40;91.70;;;;;;5026276;28;20025;-65
2023/05/07 08:24:28;;;;;;;4.28;1.00;;;27.90;89.00;;;;;;5020109;28;20083;-64
2023/05/07 08:26:53;;;;;;;1.42;0.93;;;27.60;86.80;;;;;;5021669;28;20037;-64
2023/05/07 08:29:19;;;;;;;3.67;1.38;;;27.50;88.10;;;;;;5027022;28;20037;-65
2023/05/07 08:31:45;;;;;;;2.40;1.05;;;27.60;85.80;;;;;;5021584;28;20442;-66
2023/05/07 08:34:10;;;;;;;3.97;1.00;;;27.20;84.70;;;;;;5007937;28;20104;-65
2023/05/07 08:36:36;;;;;;;1.95;1.10;;;26.50;84.90;;;;;;5019637;28;20080;-65
2023/05/07 08:39:02;;;;;;;2.40;1.20;;;25.70;89.00;;;;;;5020467;28;20033;-66
2023/05/07 08:41:27;;;;;;;2.17;1.08;;;25.10;91.20;;;;;;5009320;28;20044;-66
2023/05/07 08:43:57;;;;;;;1.33;1.00;;;24.90;91.90;;;;;;5021740;28;20038;-65
2023/05/07 08:46:25;;;;;;;2.53;1.10;;;24.70;91.20;;;;;;5012588;28;20551;-66
2023/05/07 08:48:51;;;;;;;1.75;0.80;;;24.40;91.00;;;;;;5007020;28;20054;-66
2023/05/07 08:51:20;;;;;;;1.83;1.13;;;24.10;92.30;;;;;;5023898;28;20032;-65
2023/05/07 08:53:48;;;;;;;3.65;1.20;;;24.20;93.20;;;;;;5025123;28;20083;-66
2023/05/07 08:56:15;;;;;;;2.10;1.10;;;23.60;93.60;;;;;;5020286;28;20036;-65
2023/05/07 08:58:41;;;;;;;3.80;1.38;;;23.40;94.10;;;;;;5002682;28;20030;-65
2023/05/07 09:01:10;;;;;;;6.07;1.23;;;23.50;93.00;;;;;;5021338;28;20037;-66
2023/05/07 09:03:38;;;;;;;2.63;1.15;;;23.10;94.20;;;;;;5028776;28;20036;-65
2023/05/07 09:06:03;;;;;;;1.80;0.95;;;23.20;94.80;;;;;;5018966;28;20535;-66
2023/05/07 09:08:29;;;;;;;0.95;0.80;;;22.80;95.50;;;;;;5020731;28;20024;-65
2023/05/07 09:10:55;;;;;;;2.97;1.00;;;23.10;94.40;;;;;;5012748;28;20121;-65
2023/05/07 09:13:21;;;;;;;1.27;0.90;;;23.10;95.20;;;;;;5026385;28;20483;-66
2023/05/07 09:15:46;;;;;;;3.70;0.88;;;23.30;95.00;;;;;;5015839;28;20458;-65
2023/05/07 09:18:12;;;;;;;2.13;1.05;;;23.80;93.20;;;;;;5013944;28;20026;-65
2023/05/07 09:20:40;;;;;;;2.85;1.50;;;24.60;92.90;;;;;;5018803;28;20037;-64
2023/05/07 09:23:07;;;;;;;3.13;1.08;;;25.00;91.30;;;;;;5001750;28;20023;-65
2023/05/07 09:25:34;;;;;;;6.40;1.00;;;25.70;90.00;;;;;;5024960;28;20021;-65
2023/05/07 09:28:01;;;;;;;3.38;2.63;;;26.40;89.50;;;;;;5030289;28;20037;-65
2023/05/07 09:30:31;;;;;;;3.78;2.42;;;26.50;88.20;;;;;;5006578;28;20036;-66
2023/05/07 09:32:59;;;;;;;5.57;1.52;;;27.20;86.90;;;;;;5030164;28;20035;-66
2023/05/07 09:35:27;;;;;;;2.30;0.98;;;27.80;85.80;;;;;;5029853;28;20029;-66
2023/05/07 09:37:54;;;;;;;2.55;1.10;;;28.90;86.60;;;;;;5029420;28;20395;-66
2023/05/07 09:40:25;;;;;;;1.85;1.02;;;28.70;80.40;;;;;;5028583;28;20079;-66
2023/05/07 09:42:51;;;;;;;1.52;0.88;;;28.90;78.50;;;;;;5019858;28;20026;-64
2023/05/07 09:45:31;;;;;;;3.38;1.10;;;28.10;83.00;;;;;;5017657;28;20475;-66
2023/05/07 09:47:58;;;;;;;2.50;1.10;;;27.80;80.40;;;;;;5009633;28;20109;-66
2023/05/07 09:50:28;;;;;;;2.47;1.08;;;28.20;80.40;;;;;;5028548;28;20033;-64
2023/05/07 09:52:55;;;;;;;1.42;1.10;;;27.50;79.70;;;;;;5025947;28;20040;-66
2023/05/07 09:55:22;;;;;;;1.58;1.05;;;26.60;83.70;;;;;;5020397;28;20095;-66
2023/05/07 09:57:50;;;;;;;5.47;1.10;;;26.20;86.60;;;;;;5020697;28;20195;-65
2023/05/07 10:00:19;;;;;;;4.00;1.35;;;26.10;84.90;;;;;;5028760;28;20112;-65
2023/05/07 10:02:49;;;;;;;1.25;0.90;;;25.70;87.20;;;;;;5027942;28;20024;-65
2023/05/07 10:05:15;;;;;;;1.85;0.98;;;25.40;88.70;;;;;;5028937;28;20065;-65
2023/05/07 10:07:41;;;;;;;3.03;1.40;;;25.70;87.90;;;;;;5023652;28;20180;-66
2023/05/07 10:10:07;;;;;;;3.50;1.20;;;25.70;87.90;;;;;;5027115;28;20029;-65
2023/05/07 10:12:38;;;;;;;3.40;1.20;;;25.50;86.90;;;;;;5018770;28;20064;-65
2023/05/07 10:15:08;;;;;;;3.33;1.02;;;25.60;86.60;;;;;;5021674;28;20052;-65
2023/05/07 10:17:39;;;;;;;4.15;1.25;;;25.80;85.70;;;;;;5003989;28;20497;-64
2023/05/07 10:20:06;;;;;;;3.53;1.00;;;25.40;89.40;;;;;;5015579;28;20121;-65
2023/05/07 10:22:39;;;;;;;2.15;1.17;;;25.50;86.50;;;;;;5025163;28;20472;-66
2023/05/07 10:25:13;;;;;;;8.60;1.10;;;26.20;89.90;;;;;;5021450;28;20038;-66
2023/05/07 10:27:40;;;;;;;2.17;1.00;;;26.80;87.00;;;;;;5004376;28;20025;-65
2023/05/07 10:30:20;;;;;;;1.42;1.00;;;27.00;81.30;;;;;;5019854;28;20033;-65
2023/05/07 10:32:50;;;;;;;1.50;0.90;;;26.90;81.80;;;;;;5017702;28;20373;-65
2023/05/07 10:35:26;;;;;;;1.50;1.00;;;26.70;81.90;;;;;;5024679;28;20040;-65
2023/05/07 10:37:52;;;;;;;3.15;1.00;;;25.90;82.70;;;;;;5019099;28;20029;-65
2023/05/07 10:40:19;;;;;;;4.00;0.90;;;25.90;85.60;;;;;;5028418;28;20136;-65
2023/05/07 10:43:03;;;;;;;2.25;1.30;;;25.80;85.30;;;;;;5029407;28;20035;-65
2023/05/07 10:45:29;;;;;;;1.48;0.85;;;25.90;83.20;;;;;;5032157;28;20024;-66
2023/05/07 10:48:10;;;;;;;0.95;0.88;;;25.60;84.00;;;;;;5022120;28;20430;-66
2023/05/07 10:50:40;;;;;;;2.60;1.02;;;25.90;86.60;;;;;;5031872;28;20061;-65
2023/05/07 10:53:18;;;;;;;3.03;1.23;;;26.00;86.10;;;;;;5030422;28;20109;-65
2023/05/07 10:55:52;;;;;;;1.50;0.90;;;26.10;82.00;;;;;;5025385;28;20029;-65
2023/05/07 10:58:31;;;;;;;1.13;0.90;;;26.40;84.30;;;;;;5033307;28;20068;-65
2023/05/07 11:01:01;;;;;;;2.55;1.50;;;26.10;87.10;;;;;;5024818;28;20033;-66
2023/05/07 11:03:28;;;;;;;0.98;0.88;;;26.50;81.60;;;;;;5043497;28;20452;-65
2023/05/07 11:06:08;;;;;;;4.05;1.67;;;26.50;82.60;;;;;;5024273;28;20030;-65
2023/05/07 11:08:52;;;;;;;0.80;0.80;;;26.30;84.70;;;;;;5019812;28;20037;-66
2023/05/07 11:11:21;;;;;;;2.30;1.10;;;26.40;85.10;;;;;;5024246;28;20486;-64
2023/05/07 11:13:49;;;;;;;5.25;1.00;;;26.40;78.70;;;;;;5022556;28;20033;-66
2023/05/07 11:16:18;;;;;;;2.80;1.23;;;26.50;79.60;;;;;;5006867;28;20036;-67
2023/05/07 11:18:56;;;;;;;2.13;0.90;;;26.80;78.60;;;;;;5024014;28;20108;-66
2023/05/07 11:21:36;;;;;;;1.90;1.00;;;26.60;77.10;;;;;;5022011;28;20029;-66
2023/05/07 11:24:04;;;;;;;2.35;1.20;;;26.50;79.10;;;;;;5022517;28;20033;-65
2023/05/07 11:26:41;;;;;;;4.13;1.33;;;26.70;79.80;;;;;;5019747;28;20438;-66
2023/05/07 11:29:15;;;;;;;5.40;1.15;;;26.50;79.10;;;;;;5022774;28;20029;-66
2023/05/07 11:31:40;;;;;;;4.30;0.95;;;26.30;79.80;;;;;;5026641;28;20026;-66
2023/05/07 11:34:07;;;;;;;1.65;1.10;;;26.50;80.90;;;;;;5021473;28;20024;-67
2023/05/07 11:36:33;;;;;;;2.35;1.10;;;26.50;77.20;;;;;;5025417;28;20374;-67
2023/05/07 11:38:59;;;;;;;1.48;1.00;;;26.60;77.00;;;;;;5025285;28;21296;-67
2023/05/07 11:41:36;;;;;;;2.15;0.90;;;26.60;78.00;;;;;;5031623;28;20053;-66
2023/05/07 11:44:02;;;;;;;1.45;1.08;;;27.10;77.70;;;;;;5025137;28;20033;-67
2023/05/07 11:46:28;;;;;;;3.75;1.13;;;27.50;76.10;;;;;;5025522;28;20021;-66
2023/05/07 11:48:55;;;;;;;1.92;1.08;;;27.60;76.80;;;;;;4993254;28;20025;-66
2023/05/07 11:51:22;;;;;;;2.20;1.10;;;27.90;76.20;;;;;;5024568;28;20025;-66
2023/05/07 11:53:48;;;;;;;2.35;1.17;;;28.10;75.10;;;;;;5027653;28;20028;-67
2023/05/07 11:56:16;;;;;;;2.05;1.08;;;28.00;75.50;;;;;;5033031;28;20516;-66
2023/05/07 11:58:43;;;;;;;3.17;0.73;;;27.50;75.40;;;;;;5029149;28;20120;-65
2023/05/07 12:01:09;;;;;;;3.67;0.85;;;27.50;77.90;;;;;;5011217;28;20390;-67
2023/05/07 12:03:45;;;;;;;3.85;1.15;;;27.80;77.70;;;;;;5026165;28;20620;-66
2023/05/07 12:06:12;;;;;;;1.05;0.88;;;27.40;77.20;;;;;;5005959;28;20028;-66
2023/05/07 12:08:41;;;;;;;5.72;1.58;;;27.40;78.00;;;;;;5023371;28;20075;-67
2023/05/07 12:11:14;;;;;;;2.35;1.10;;;26.90;76.30;;;;;;4997380;28;20018;-66
2023/05/07 12:13:41;;;;;;;;;;;27.10;74.60;;;;;;5024843;28;20034;-66
2023/05/07 12:16:07;;;;;;;1.63;0.90;;;27.00;77.90;;;;;;5003825;28;19988;-67
2023/05/07 12:18:35;;;;;;;1.58;0.90;;;26.50;76.00;;;;;;5022086;28;20029;-66
2023/05/07 12:21:01;;;;;;;1.90;0.88;;;26.20;76.50;;;;;;5016436;28;20483;-66
2023/05/07 12:23:27;;;;;;;1.73;1.00;;;26.50;73.60;;;;;;5011739;28;20387;-66
2023/05/07 12:25:53;;;;;;;2.38;1.05;;;26.70;76.30;;;;;;5025311;28;20024;-66
2023/05/07 12:28:19;;;;;;;3.20;0.90;;;26.30;75.20;;;;;;5033521;28;20017;-66
2023/05/07 12:30:48;;;;;;;6.53;1.20;;;26.30;74.70;;;;;;5007336;28;20036;-67
2023/05/07 12:33:19;;;;;;;1.88;1.05;;;26.30;80.00;;;;;;5025502;28;20042;-67
2023/05/07 12:35:44;;;;;;;1.45;1.20;;;26.30;74.40;;;;;;4995163;28;20030;-67
2023/05/07 12:38:13;;;;;;;2.53;0.90;;;26.20;76.20;;;;;;5020656;28;20044;-66
2023/05/07 12:40:43;;;;;;;3.20;1.48;;;26.10;75.80;;;;;;5020548;28;20044;-66
2023/05/07 12:43:19;;;;;;;2.17;1.08;;;26.30;74.70;;;;;;5020318;28;20029;-67
2023/05/07 12:45:48;;;;;;;1.90;1.00;;;26.10;76.70;;;;;;5022355;28;20029;-66
2023/05/07 12:48:13;;;;;;;2.97;1.30;;;25.70;75.00;;;;;;4996365;28;20232;-66